ADDS METAR Data INFO
IDs: Format: Raw Decoded Include TAF

Data at: 1934 UTC 17 Jul 2018

METAR for:KOSU (Columbus/Ohio State, OH, US)
Text:KOSU 171853Z 35014KT 10SM CLR 29/14 A2998 RMK AO2 SLP143 T02940144
Temperature: 29.4°C ( 85°F)
Dewpoint: 14.4°C ( 58°F) [RH = 40%]
Pressure (altimeter):29.98 inches Hg (1015.3 mb) [Sea level pressure: 1014.3 mb]
Winds:from the N (350 degrees) at 16 MPH (14 knots; 7.2 m/s)
Visibility:10 or more sm (16+ km)
Ceiling:at least 12,000 feet AGL
Clouds:sky clear below 12,000 feet AGL